Time;durP1;ratioP1;P1;durP2;ratioP2;P2;SDS_P1;SDS_P2;PMS_P1;PMS_P2;Temp;Humidity;BMP_temperature;BMP_pressure;BME280_temperature;BME280_humidity;BME280_pressure;Samples;Min_cycle;Max_cycle;Signal;HPM_P1;HPM_P2
2022/05/28 00:00:59;;;;;;;0.60;0.38;;;;;;;;;;5016270;28;20120;-84
2022/05/28 00:03:32;;;;;;;0.00;0.00;;;;;;;;;;5032005;28;20052;-83
2022/05/28 00:05:59;;;;;;;0.75;0.55;;;;;;;;;;5014429;28;20026;-84
2022/05/28 00:08:25;;;;;;;0.63;0.52;;;;;;;;;;5015341;28;20105;-84
2022/05/28 00:10:57;;;;;;;0.40;0.40;;;;;;;;;;5016766;28;20113;-83
2022/05/28 00:13:23;;;;;;;0.47;0.47;;;;;;;;;;5016595;28;20049;-84
2022/05/28 00:15:52;;;;;;;0.00;0.00;;;;;;;;;;4999550;28;20034;-84
2022/05/28 00:18:17;;;;;;;0.08;0.08;;;;;;;;;;5016110;28;20030;-83
2022/05/28 00:20:45;;;;;;;0.88;0.70;;;;;;;;;;5016632;28;20075;-83
2022/05/28 00:23:13;;;;;;;0.28;0.28;;;;;;;;;;5015846;28;20040;-83
2022/05/28 00:25:43;;;;;;;0.20;0.20;;;;;;;;;;5016246;28;20481;-83
2022/05/28 00:28:10;;;;;;;1.52;1.35;;;;;;;;;;5016757;28;20577;-83
2022/05/28 00:30:36;;;;;;;4.13;1.10;;;;;;;;;;5012369;28;20065;-81
2022/05/28 00:33:03;;;;;;;0.32;0.32;;;;;;;;;;5016527;28;20049;-81
2022/05/28 00:35:29;;;;;;;0.68;0.57;;;;;;;;;;5016797;28;20030;-83
2022/05/28 00:37:56;;;;;;;0.10;0.10;;;;;;;;;;5015929;28;20033;-83
2022/05/28 00:40:28;;;;;;;0.10;0.10;;;;;;;;;;5016135;28;20026;-84
2022/05/28 00:43:01;;;;;;;0.65;0.52;;;;;;;;;;5015623;28;20025;-80
2022/05/28 00:45:30;;;;;;;0.30;0.30;;;;;;;;;;5015746;28;20022;-83
2022/05/28 00:48:03;;;;;;;3.50;0.55;;;;;;;;;;5014796;28;20048;-84
2022/05/28 00:50:32;;;;;;;0.22;0.22;;;;;;;;;;5017669;28;20474;-83
2022/05/28 00:52:57;;;;;;;0.00;0.00;;;;;;;;;;4998728;28;20049;-83
2022/05/28 00:55:25;;;;;;;0.05;0.05;;;;;;;;;;5014996;28;20463;-81
2022/05/28 00:57:50;;;;;;;0.25;0.25;;;;;;;;;;5015237;28;20029;-83
2022/05/28 01:00:20;;;;;;;0.47;0.47;;;;;;;;;;5014951;28;20033;-81
2022/05/28 01:02:56;;;;;;;1.08;0.90;;;;;;;;;;5014802;28;20021;-82
2022/05/28 01:05:40;;;;;;;0.20;0.13;;;;;;;;;;5012558;28;20037;-83
2022/05/28 01:08:15;;;;;;;0.00;0.00;;;;;;;;;;5007263;28;20420;-83
2022/05/28 01:10:46;;;;;;;2.20;0.85;;;;;;;;;;5004028;28;20030;-83
2022/05/28 01:13:18;;;;;;;0.10;0.10;;;;;;;;;;5008716;28;20045;-84
2022/05/28 01:15:52;;;;;;;3.42;0.40;;;;;;;;;;4997982;28;20080;-82
2022/05/28 01:18:26;;;;;;;4.07;1.13;;;;;;;;;;5014159;28;20117;-84
2022/05/28 01:20:55;;;;;;;0.95;0.25;;;;;;;;;;5012292;28;20029;-83
2022/05/28 01:23:54;;;;;;;0.28;0.28;;;;;;;;;;5016068;28;20041;-83
2022/05/28 01:26:31;;;;;;;0.28;0.17;;;;;;;;;;5001528;28;20042;-81
2022/05/28 01:28:59;;;;;;;0.85;0.82;;;;;;;;;;5000614;28;20049;-85
2022/05/28 01:31:26;;;;;;;0.40;0.30;;;;;;;;;;5012766;28;20026;-79
2022/05/28 01:33:55;;;;;;;0.30;0.30;;;;;;;;;;5026971;28;20097;-79
2022/05/28 01:36:21;;;;;;;0.70;0.52;;;;;;;;;;5014888;28;20092;-79
2022/05/28 01:38:49;;;;;;;0.10;0.10;;;;;;;;;;5013713;28;20029;-79
2022/05/28 01:41:15;;;;;;;0.45;0.45;;;;;;;;;;5014532;28;20029;-80
2022/05/28 01:43:44;;;;;;;0.95;0.45;;;;;;;;;;4997103;28;20028;-80
2022/05/28 01:46:11;;;;;;;0.40;0.40;;;;;;;;;;5013992;28;20017;-79
2022/05/28 01:48:37;;;;;;;2.95;0.65;;;;;;;;;;5013538;28;20061;-79
2022/05/28 01:51:05;;;;;;;0.93;0.30;;;;;;;;;;5014649;28;20451;-79
2022/05/28 01:56:18;;;;;;;0.50;0.50;;;;;;;;;;5013599;28;20044;-80
2022/05/28 01:58:43;;;;;;;0.57;0.57;;;;;;;;;;4995738;28;20021;-80
2022/05/28 02:01:13;;;;;;;0.10;0.10;;;;;;;;;;5014909;28;20014;-80
2022/05/28 02:03:45;;;;;;;1.65;1.45;;;;;;;;;;5014835;28;20121;-80
2022/05/28 02:06:11;;;;;;;0.08;0.08;;;;;;;;;;4997589;28;20021;-80
2022/05/28 02:08:39;;;;;;;2.00;1.08;;;;;;;;;;5011145;28;20038;-79
2022/05/28 02:11:21;;;;;;;0.00;0.00;;;;;;;;;;5012497;28;20034;-80
2022/05/28 02:13:50;;;;;;;1.80;0.45;;;;;;;;;;5013174;28;20121;-79
2022/05/28 02:16:23;;;;;;;0.20;0.20;;;;;;;;;;5012500;28;20105;-79
2022/05/28 02:18:54;;;;;;;0.08;0.08;;;;;;;;;;5014071;28;20025;-79
2022/05/28 02:21:21;;;;;;;0.00;0.00;;;;;;;;;;5014043;28;20455;-79
2022/05/28 02:24:02;;;;;;;0.60;0.43;;;;;;;;;;5014994;28;20055;-78
2022/05/28 02:26:31;;;;;;;6.50;0.75;;;;;;;;;;5011872;28;20430;-79
2022/05/28 02:29:01;;;;;;;3.72;1.73;;;;;;;;;;5014564;28;20514;-79
2022/05/28 02:31:29;;;;;;;2.85;0.32;;;;;;;;;;5012671;28;20316;-79
2022/05/28 02:33:54;;;;;;;0.32;0.32;;;;;;;;;;5013530;28;20030;-79
2022/05/28 02:36:20;;;;;;;5.38;1.65;;;;;;;;;;4996575;28;20026;-79
2022/05/28 02:38:48;;;;;;;0.57;0.55;;;;;;;;;;4997162;28;20038;-79
2022/05/28 02:41:13;;;;;;;0.47;0.47;;;;;;;;;;5012890;28;20470;-79
2022/05/28 02:43:39;;;;;;;0.30;0.30;;;;;;;;;;5012900;28;20049;-79
2022/05/28 02:46:05;;;;;;;1.08;1.02;;;;;;;;;;5013067;28;20026;-79
2022/05/28 02:48:31;;;;;;;5.82;2.40;;;;;;;;;;5013526;28;20021;-79
2022/05/28 02:51:09;;;;;;;0.60;0.13;;;;;;;;;;5013464;28;20044;-79
2022/05/28 02:53:38;;;;;;;0.15;0.15;;;;;;;;;;5029041;28;20029;-79
2022/05/28 02:56:15;;;;;;;0.95;0.55;;;;;;;;;;5013303;28;20030;-79
2022/05/28 02:58:41;;;;;;;2.17;1.60;;;;;;;;;;5013821;28;20021;-80
2022/05/28 03:01:17;;;;;;;0.35;0.35;;;;;;;;;;5028458;28;20041;-79
2022/05/28 03:03:43;;;;;;;0.10;0.10;;;;;;;;;;5009138;28;20061;-79
2022/05/28 03:06:08;;;;;;;0.93;0.90;;;;;;;;;;5013244;28;20049;-79
2022/05/28 03:08:38;;;;;;;1.65;0.35;;;;;;;;;;5012346;28;20112;-79
2022/05/28 03:11:03;;;;;;;0.35;0.30;;;;;;;;;;5013196;28;20108;-79
2022/05/28 03:13:29;;;;;;;0.82;0.32;;;;;;;;;;5013480;28;20030;-79
2022/05/28 03:15:54;;;;;;;0.82;0.45;;;;;;;;;;5013346;28;20022;-78
2022/05/28 03:18:22;;;;;;;1.23;0.70;;;;;;;;;;5012822;28;20029;-78
2022/05/28 03:20:47;;;;;;;2.40;0.82;;;;;;;;;;5014445;28;20033;-79
2022/05/28 03:23:12;;;;;;;0.93;0.32;;;;;;;;;;5012619;28;20275;-78
2022/05/28 03:25:38;;;;;;;0.93;0.43;;;;;;;;;;5012488;28;20099;-78
2022/05/28 03:28:03;;;;;;;0.22;0.22;;;;;;;;;;5013210;28;20037;-79
2022/05/28 03:30:29;;;;;;;1.30;0.93;;;;;;;;;;5013497;28;20095;-79
2022/05/28 03:32:56;;;;;;;0.08;0.00;;;;;;;;;;5015953;28;20030;-79
2022/05/28 03:35:24;;;;;;;0.35;0.35;;;;;;;;;;4999670;28;20075;-79
2022/05/28 03:37:49;;;;;;;0.43;0.35;;;;;;;;;;5015136;28;20033;-80
2022/05/28 03:40:15;;;;;;;0.50;0.47;;;;;;;;;;5016652;28;20132;-79
2022/05/28 03:42:48;;;;;;;0.13;0.10;;;;;;;;;;5016055;28;20021;-80
2022/05/28 03:45:15;;;;;;;2.35;0.30;;;;;;;;;;5016206;28;20028;-79
2022/05/28 03:47:43;;;;;;;0.52;0.43;;;;;;;;;;5015957;28;20033;-79
2022/05/28 03:50:09;;;;;;;0.57;0.10;;;;;;;;;;5016815;28;20080;-80
2022/05/28 03:52:34;;;;;;;1.25;0.45;;;;;;;;;;5015804;28;20041;-79
2022/05/28 03:54:59;;;;;;;3.40;0.85;;;;;;;;;;5016592;28;20467;-79
2022/05/28 03:57:30;;;;;;;0.28;0.28;;;;;;;;;;4997745;28;20450;-79
2022/05/28 03:59:57;;;;;;;0.98;0.82;;;;;;;;;;5015723;28;20047;-79
2022/05/28 04:02:25;;;;;;;0.47;0.47;;;;;;;;;;5013138;28;20021;-79
2022/05/28 04:04:51;;;;;;;0.30;0.30;;;;;;;;;;5015493;28;20106;-79
2022/05/28 04:07:17;;;;;;;2.72;1.48;;;;;;;;;;5015104;28;20022;-80
2022/05/28 04:09:45;;;;;;;0.17;0.15;;;;;;;;;;5016161;28;20030;-79
2022/05/28 04:12:10;;;;;;;0.47;0.47;;;;;;;;;;4999312;28;20026;-79
2022/05/28 04:14:36;;;;;;;1.55;1.00;;;;;;;;;;5016409;28;20482;-80
2022/05/28 04:17:02;;;;;;;1.98;1.08;;;;;;;;;;5015523;28;20065;-79
2022/05/28 04:19:28;;;;;;;0.20;0.20;;;;;;;;;;5016480;28;20036;-79
2022/05/28 04:21:53;;;;;;;0.60;0.22;;;;;;;;;;5015669;28;20029;-80
2022/05/28 04:24:19;;;;;;;4.90;0.45;;;;;;;;;;5016066;28;20531;-80
2022/05/28 04:26:44;;;;;;;1.98;0.25;;;;;;;;;;5011664;28;20026;-80
2022/05/28 04:29:10;;;;;;;0.68;0.60;;;;;;;;;;4998420;28;20053;-79
2022/05/28 04:31:35;;;;;;;0.82;0.82;;;;;;;;;;5015140;28;20486;-79
2022/05/28 04:34:03;;;;;;;0.00;0.00;;;;;;;;;;5015948;28;20033;-80
2022/05/28 04:36:31;;;;;;;0.68;0.50;;;;;;;;;;4995928;28;20033;-78
2022/05/28 04:38:56;;;;;;;0.30;0.30;;;;;;;;;;5016676;28;20022;-80
2022/05/28 04:41:21;;;;;;;0.30;0.30;;;;;;;;;;5016704;28;20104;-79
2022/05/28 04:43:47;;;;;;;2.40;1.33;;;;;;;;;;5014860;28;20110;-79
2022/05/28 04:46:12;;;;;;;0.63;0.60;;;;;;;;;;5013650;28;20087;-79
2022/05/28 04:48:38;;;;;;;0.10;0.10;;;;;;;;;;5014238;28;20033;-79
2022/05/28 04:51:04;;;;;;;1.65;1.27;;;;;;;;;;5015289;28;20029;-79
2022/05/28 04:53:29;;;;;;;0.30;0.30;;;;;;;;;;5016518;28;20029;-79
2022/05/28 04:55:55;;;;;;;0.57;0.57;;;;;;;;;;5016219;28;20026;-79
2022/05/28 04:58:20;;;;;;;0.00;0.00;;;;;;;;;;4997076;28;20032;-79
2022/05/28 05:00:46;;;;;;;0.17;0.17;;;;;;;;;;5011390;28;20098;-79
2022/05/28 05:03:12;;;;;;;1.25;0.43;;;;;;;;;;5013452;28;20037;-79
2022/05/28 05:05:37;;;;;;;0.10;0.10;;;;;;;;;;5015241;28;20466;-80
2022/05/28 05:08:07;;;;;;;0.43;0.22;;;;;;;;;;5016038;28;20328;-79
2022/05/28 05:10:35;;;;;;;2.40;0.20;;;;;;;;;;5013679;28;20037;-80
2022/05/28 05:13:01;;;;;;;0.25;0.25;;;;;;;;;;5013183;28;20049;-80
2022/05/28 05:15:27;;;;;;;0.75;0.75;;;;;;;;;;5011524;28;20080;-79
2022/05/28 05:17:55;;;;;;;0.35;0.35;;;;;;;;;;5015180;28;20117;-80
2022/05/28 05:20:22;;;;;;;0.10;0.10;;;;;;;;;;5014391;28;20029;-80
2022/05/28 05:22:48;;;;;;;0.75;0.73;;;;;;;;;;5014438;28;20025;-80
2022/05/28 05:25:14;;;;;;;1.35;1.15;;;;;;;;;;4998379;28;20026;-80
2022/05/28 05:27:42;;;;;;;4.53;1.42;;;;;;;;;;5013533;28;20105;-78
2022/05/28 05:30:08;;;;;;;0.20;0.20;;;;;;;;;;5013163;28;20108;-78
2022/05/28 05:32:34;;;;;;;3.47;1.08;;;;;;;;;;5014218;28;20068;-77
2022/05/28 05:34:59;;;;;;;0.57;0.47;;;;;;;;;;5014239;28;20054;-78
2022/05/28 05:37:24;;;;;;;0.32;0.32;;;;;;;;;;5015724;28;20030;-77
2022/05/28 05:39:50;;;;;;;6.88;1.80;;;;;;;;;;5015181;28;20033;-77
2022/05/28 05:42:20;;;;;;;0.40;0.40;;;;;;;;;;5015403;28;20327;-77
2022/05/28 05:44:46;;;;;;;0.10;0.10;;;;;;;;;;5013243;28;20057;-77
2022/05/28 05:47:11;;;;;;;0.00;0.00;;;;;;;;;;5013326;28;20041;-77
2022/05/28 05:49:39;;;;;;;0.90;0.68;;;;;;;;;;5014376;28;20026;-77
2022/05/28 05:52:07;;;;;;;0.10;0.10;;;;;;;;;;5014286;28;20091;-77
2022/05/28 05:54:33;;;;;;;4.28;0.55;;;;;;;;;;5012090;28;20029;-77
2022/05/28 05:56:58;;;;;;;0.45;0.45;;;;;;;;;;5014204;28;20450;-77
2022/05/28 05:59:24;;;;;;;1.02;0.70;;;;;;;;;;5013587;28;20045;-78
2022/05/28 06:01:51;;;;;;;0.40;0.40;;;;;;;;;;5009967;28;20068;-78
2022/05/28 06:04:17;;;;;;;12.38;1.58;;;;;;;;;;5012871;28;20029;-78
2022/05/28 06:06:42;;;;;;;0.05;0.05;;;;;;;;;;5014442;28;20168;-78
2022/05/28 06:09:10;;;;;;;0.95;0.40;;;;;;;;;;4997387;28;20045;-78
2022/05/28 06:11:36;;;;;;;0.57;0.40;;;;;;;;;;5015002;28;20026;-78
2022/05/28 06:14:01;;;;;;;1.08;0.47;;;;;;;;;;5013723;28;20104;-78
2022/05/28 06:16:27;;;;;;;2.92;0.80;;;;;;;;;;5008725;28;20026;-77
2022/05/28 06:18:52;;;;;;;0.13;0.13;;;;;;;;;;5013961;28;20036;-78
2022/05/28 06:21:18;;;;;;;0.10;0.10;;;;;;;;;;5014723;28;20058;-77
2022/05/28 06:23:43;;;;;;;0.00;0.00;;;;;;;;;;5013783;28;20499;-77
2022/05/28 06:26:10;;;;;;;0.00;0.00;;;;;;;;;;4994428;28;21621;-77
2022/05/28 06:28:36;;;;;;;0.00;0.00;;;;;;;;;;5027103;28;20030;-77
2022/05/28 06:31:03;;;;;;;0.40;0.40;;;;;;;;;;5011354;28;20033;-77
2022/05/28 06:33:31;;;;;;;0.40;0.40;;;;;;;;;;5012385;28;20026;-77
2022/05/28 06:35:58;;;;;;;0.65;0.43;;;;;;;;;;5013529;28;20030;-77
2022/05/28 06:38:26;;;;;;;0.10;0.10;;;;;;;;;;5014160;28;20030;-78
2022/05/28 06:40:52;;;;;;;0.82;0.32;;;;;;;;;;5012732;28;20034;-78
2022/05/28 06:43:20;;;;;;;0.10;0.10;;;;;;;;;;5012520;28;20054;-78
2022/05/28 06:45:48;;;;;;;1.60;0.13;;;;;;;;;;5012690;28;20026;-78
2022/05/28 06:48:13;;;;;;;0.57;0.43;;;;;;;;;;5009360;28;20026;-77
2022/05/28 06:53:25;;;;;;;2.55;0.77;;;;;;;;;;5013802;28;20068;-77
2022/05/28 06:55:51;;;;;;;0.03;0.03;;;;;;;;;;5013828;28;20049;-78
2022/05/28 06:58:16;;;;;;;0.03;0.03;;;;;;;;;;4995803;28;20414;-77
2022/05/28 07:00:42;;;;;;;0.40;0.40;;;;;;;;;;5013712;28;20094;-78
2022/05/28 07:03:22;;;;;;;0.30;0.20;;;;;;;;;;5012719;28;20100;-77
2022/05/28 07:05:47;;;;;;;0.50;0.50;;;;;;;;;;5012541;28;20036;-78
2022/05/28 07:08:13;;;;;;;0.45;0.35;;;;;;;;;;5015975;28;20358;-77
2022/05/28 07:10:45;;;;;;;0.52;0.40;;;;;;;;;;5015222;28;20030;-77
2022/05/28 07:13:11;;;;;;;0.13;0.10;;;;;;;;;;5018210;28;20036;-78
2022/05/28 07:15:37;;;;;;;0.10;0.10;;;;;;;;;;5017342;28;20030;-77
2022/05/28 07:18:05;;;;;;;1.08;0.75;;;;;;;;;;5018247;28;20109;-77
2022/05/28 07:20:30;;;;;;;2.38;1.73;;;;;;;;;;5016867;28;20045;-77
2022/05/28 07:22:56;;;;;;;0.30;0.30;;;;;;;;;;5016402;28;20029;-77
2022/05/28 07:25:21;;;;;;;0.00;0.00;;;;;;;;;;5015903;28;20458;-77
2022/05/28 07:27:46;;;;;;;0.32;0.30;;;;;;;;;;5016640;28;20030;-77
2022/05/28 07:30:16;;;;;;;15.07;2.88;;;;;;;;;;5017733;28;20099;-78
2022/05/28 07:32:41;;;;;;;0.25;0.25;;;;;;;;;;5016866;28;20057;-77
2022/05/28 07:35:13;;;;;;;0.20;0.20;;;;;;;;;;5016232;28;20030;-77
2022/05/28 07:37:39;;;;;;;1.45;0.90;;;;;;;;;;5015747;28;20172;-77
2022/05/28 07:40:07;;;;;;;0.25;0.20;;;;;;;;;;5016866;28;20128;-77
2022/05/28 07:42:34;;;;;;;1.08;0.30;;;;;;;;;;5015984;28;20390;-78
2022/05/28 07:45:00;;;;;;;1.17;0.40;;;;;;;;;;5016372;28;20025;-77
2022/05/28 07:47:25;;;;;;;0.15;0.15;;;;;;;;;;5015912;28;20041;-78
2022/05/28 07:49:50;;;;;;;0.93;0.73;;;;;;;;;;5015652;28;20532;-77
2022/05/28 07:52:17;;;;;;;0.20;0.20;;;;;;;;;;5017547;28;20053;-78
2022/05/28 07:54:46;;;;;;;0.10;0.10;;;;;;;;;;5015078;28;20026;-78
2022/05/28 07:57:13;;;;;;;0.38;0.38;;;;;;;;;;5016295;28;20040;-78
2022/05/28 07:59:39;;;;;;;2.55;0.35;;;;;;;;;;4998842;28;20113;-78
2022/05/28 08:02:04;;;;;;;0.00;0.00;;;;;;;;;;5031108;28;20113;-78
2022/05/28 08:04:30;;;;;;;0.20;0.20;;;;;;;;;;5014741;28;20053;-78
2022/05/28 08:06:57;;;;;;;0.10;0.10;;;;;;;;;;5012954;28;20045;-77
2022/05/28 08:09:23;;;;;;;0.00;0.00;;;;;;;;;;5015081;28;20076;-78
2022/05/28 08:11:48;;;;;;;0.30;0.17;;;;;;;;;;5014362;28;20455;-78
2022/05/28 08:14:13;;;;;;;0.10;0.10;;;;;;;;;;5015998;28;20814;-79
2022/05/28 08:16:39;;;;;;;0.45;0.20;;;;;;;;;;5015945;28;20053;-79
2022/05/28 08:19:11;;;;;;;0.30;0.30;;;;;;;;;;5014643;28;20017;-79
2022/05/28 08:24:20;;;;;;;1.85;0.20;;;;;;;;;;5017119;28;20047;-78
2022/05/28 08:26:46;;;;;;;1.20;0.22;;;;;;;;;;5017186;28;20463;-79
2022/05/28 08:29:11;;;;;;;0.68;0.45;;;;;;;;;;5016011;28;20075;-79
2022/05/28 08:31:38;;;;;;;0.45;0.32;;;;;;;;;;4999667;28;20082;-78
2022/05/28 08:34:04;;;;;;;0.10;0.10;;;;;;;;;;5016815;28;20406;-79
2022/05/28 08:36:32;;;;;;;0.10;0.10;;;;;;;;;;5016295;28;20030;-79
2022/05/28 08:38:57;;;;;;;0.10;0.10;;;;;;;;;;5017013;28;20037;-79
2022/05/28 08:41:26;;;;;;;2.38;0.98;;;;;;;;;;5015978;28;20022;-79
2022/05/28 08:43:57;;;;;;;0.32;0.20;;;;;;;;;;5015937;28;20331;-79
2022/05/28 08:46:24;;;;;;;1.08;0.28;;;;;;;;;;5016897;28;20018;-79
2022/05/28 08:48:54;;;;;;;0.52;0.22;;;;;;;;;;5017091;28;20025;-78
2022/05/28 08:51:56;;;;;;;3.85;0.73;;;;;;;;;;5013054;28;20561;-79
2022/05/28 08:54:59;;;;;;;0.00;0.00;;;;;;;;;;4998224;28;20121;-79
2022/05/28 08:57:43;;;;;;;;;;;;;;;;;;5015642;28;20030;-78
2022/05/28 09:00:11;;;;;;;0.00;0.00;;;;;;;;;;5015220;28;19920;-78
2022/05/28 09:02:41;;;;;;;0.28;0.22;;;;;;;;;;5015147;28;20088;-78
2022/05/28 09:05:19;;;;;;;0.00;0.00;;;;;;;;;;4998057;28;20057;-79
2022/05/28 09:07:45;;;;;;;0.43;0.17;;;;;;;;;;5014352;28;20037;-78
2022/05/28 09:10:10;;;;;;;0.00;0.00;;;;;;;;;;5014050;28;20029;-79
2022/05/28 09:12:51;;;;;;;0.43;0.10;;;;;;;;;;5016123;28;20029;-78
2022/05/28 09:15:19;;;;;;;0.13;0.13;;;;;;;;;;5015028;28;20033;-77
2022/05/28 09:17:46;;;;;;;0.70;0.43;;;;;;;;;;5013062;28;20366;-78
2022/05/28 09:20:20;;;;;;;0.98;0.45;;;;;;;;;;5015510;28;20026;-78
2022/05/28 09:22:45;;;;;;;1.45;0.65;;;;;;;;;;5015093;28;20097;-78
2022/05/28 09:25:11;;;;;;;0.15;0.10;;;;;;;;;;5015903;28;20431;-78
2022/05/28 09:27:59;;;;;;;0.00;0.00;;;;;;;;;;5016077;28;20394;-78
2022/05/28 09:30:36;;;;;;;0.20;0.20;;;;;;;;;;5013903;28;20030;-78
2022/05/28 09:33:13;;;;;;;0.00;0.00;;;;;;;;;;5015482;28;20109;-79
2022/05/28 09:36:08;;;;;;;7.03;0.47;;;;;;;;;;5014500;28;20109;-79
2022/05/28 09:38:43;;;;;;;2.63;0.43;;;;;;;;;;5015126;28;20066;-80
2022/05/28 09:41:20;;;;;;;2.35;0.98;;;;;;;;;;4998368;28;20064;-79
2022/05/28 09:43:55;;;;;;;3.90;0.68;;;;;;;;;;5014317;28;20030;-78
2022/05/28 09:46:34;;;;;;;5.47;0.90;;;;;;;;;;5008773;28;20097;-79
2022/05/28 09:49:00;;;;;;;0.00;0.00;;;;;;;;;;5001022;28;20054;-78
2022/05/28 09:51:30;;;;;;;1.80;1.13;;;;;;;;;;5007294;28;20022;-77
2022/05/28 09:54:20;;;;;;;0.10;0.10;;;;;;;;;;4991788;28;20388;-79
2022/05/28 09:57:09;;;;;;;6.45;0.55;;;;;;;;;;5006198;28;20042;-78
2022/05/28 10:00:00;;;;;;;0.20;0.20;;;;;;;;;;5005490;28;20030;-78
2022/05/28 10:02:26;;;;;;;1.20;0.63;;;;;;;;;;5006191;28;20485;-78
2022/05/28 10:05:11;;;;;;;0.45;0.20;;;;;;;;;;5006911;28;20026;-77
2022/05/28 10:07:41;;;;;;;1.02;0.05;;;;;;;;;;5002101;28;20034;-78
2022/05/28 10:10:30;;;;;;;0.10;0.00;;;;;;;;;;5004732;28;20030;-77
2022/05/28 10:13:11;;;;;;;1.30;0.75;;;;;;;;;;5013360;28;20095;-77
2022/05/28 10:15:43;;;;;;;0.20;0.20;;;;;;;;;;5012676;28;20026;-78
2022/05/28 10:21:37;;;;;;;0.05;0.05;;;;;;;;;;5008755;28;20038;-78
2022/05/28 10:24:18;;;;;;;0.25;0.10;;;;;;;;;;5013480;28;20030;-77
2022/05/28 10:26:53;;;;;;;0.20;0.13;;;;;;;;;;5011307;28;20117;-78
2022/05/28 10:29:20;;;;;;;0.00;0.00;;;;;;;;;;5011498;28;20431;-77
2022/05/28 10:31:48;;;;;;;0.10;0.10;;;;;;;;;;5013846;28;20026;-77
2022/05/28 10:34:31;;;;;;;0.00;0.00;;;;;;;;;;4997411;28;20026;-75
2022/05/28 10:37:08;;;;;;;0.10;0.10;;;;;;;;;;5012713;28;20068;-75
2022/05/28 10:39:33;;;;;;;6.65;0.63;;;;;;;;;;5013190;28;20026;-77
2022/05/28 10:41:58;;;;;;;0.52;0.38;;;;;;;;;;5004810;28;20473;-75
2022/05/28 10:44:24;;;;;;;0.30;0.20;;;;;;;;;;5001976;28;20061;-77
2022/05/28 10:47:12;;;;;;;0.20;0.13;;;;;;;;;;5006798;28;20076;-76
2022/05/28 10:49:59;;;;;;;0.20;0.20;;;;;;;;;;4995569;28;20613;-73
2022/05/28 10:52:34;;;;;;;5.47;0.55;;;;;;;;;;5013161;28;20030;-75
2022/05/28 10:55:09;;;;;;;0.10;0.10;;;;;;;;;;5012823;28;20105;-74
2022/05/28 10:58:09;;;;;;;0.13;0.13;;;;;;;;;;5008235;28;20054;-74
2022/05/28 11:00:45;;;;;;;1.30;0.43;;;;;;;;;;5005776;28;20022;-73
2022/05/28 11:03:33;;;;;;;2.22;0.40;;;;;;;;;;5013511;28;20025;-74
2022/05/28 11:06:23;;;;;;;0.00;0.00;;;;;;;;;;5011752;28;20105;-75
2022/05/28 11:08:57;;;;;;;2.40;0.57;;;;;;;;;;5005179;28;20414;-75
2022/05/28 11:11:24;;;;;;;0.45;0.45;;;;;;;;;;4999387;28;20089;-73
2022/05/28 11:14:15;;;;;;;1.55;0.63;;;;;;;;;;5026304;28;20332;-73
2022/05/28 11:16:52;;;;;;;1.75;0.80;;;;;;;;;;5007829;28;20363;-73
2022/05/28 11:19:38;;;;;;;0.57;0.57;;;;;;;;;;5000452;28;20053;-73
2022/05/28 11:22:37;;;;;;;0.60;0.17;;;;;;;;;;5010385;28;20100;-74
2022/05/28 11:28:59;;;;;;;1.25;0.55;;;;;;;;;;5011057;28;20032;-73
2022/05/28 11:31:49;;;;;;;0.10;0.10;;;;;;;;;;5009046;28;20041;-74
2022/05/28 11:34:29;;;;;;;0.35;0.20;;;;;;;;;;5012021;28;20046;-74
2022/05/28 11:37:20;;;;;;;0.10;0.10;;;;;;;;;;5005095;28;20041;-73
2022/05/28 11:39:57;;;;;;;1.77;0.50;;;;;;;;;;5009300;28;20065;-76
2022/05/28 11:42:52;;;;;;;3.03;0.57;;;;;;;;;;5011947;28;20457;-77
2022/05/28 11:45:22;;;;;;;4.65;0.63;;;;;;;;;;5011062;28;20101;-76
2022/05/28 11:47:47;;;;;;;0.13;0.10;;;;;;;;;;5012780;28;20036;-76
2022/05/28 11:53:22;;;;;;;0.20;0.20;;;;;;;;;;5012042;28;20041;-76
2022/05/28 11:55:52;;;;;;;0.05;0.05;;;;;;;;;;5010683;28;20494;-77
2022/05/28 11:58:20;;;;;;;0.10;0.10;;;;;;;;;;5016264;28;20358;-76
2022/05/28 12:00:54;;;;;;;0.38;0.10;;;;;;;;;;5012138;28;20937;-75
2022/05/28 12:03:22;;;;;;;0.00;0.00;;;;;;;;;;4997209;28;20053;-76
2022/05/28 12:05:51;;;;;;;0.10;0.10;;;;;;;;;;5014390;28;20169;-76
2022/05/28 12:08:29;;;;;;;0.30;0.30;;;;;;;;;;5016914;28;20441;-79
2022/05/28 12:11:04;;;;;;;0.22;0.22;;;;;;;;;;5012453;28;20482;-77
2022/05/28 12:13:36;;;;;;;6.43;0.93;;;;;;;;;;4997542;28;20029;-77
2022/05/28 12:16:07;;;;;;;0.60;0.40;;;;;;;;;;5015312;28;20022;-77
2022/05/28 12:18:35;;;;;;;2.17;0.65;;;;;;;;;;5016077;28;20042;-78
2022/05/28 12:21:03;;;;;;;0.13;0.13;;;;;;;;;;5017692;28;20033;-81
2022/05/28 12:23:40;;;;;;;2.13;0.55;;;;;;;;;;5017327;28;20030;-80
2022/05/28 12:29:22;;;;;;;0.13;0.10;;;;;;;;;;5012625;28;20041;-78
2022/05/28 12:31:51;;;;;;;2.88;0.47;;;;;;;;;;5010271;28;20048;-78
2022/05/28 12:34:29;;;;;;;0.20;0.20;;;;;;;;;;5013115;28;20014;-77
2022/05/28 12:36:56;;;;;;;0.22;0.20;;;;;;;;;;5026517;28;20030;-78
2022/05/28 12:39:38;;;;;;;3.25;0.98;;;;;;;;;;5016549;28;20109;-77
2022/05/28 12:42:05;;;;;;;0.00;0.00;;;;;;;;;;5013820;28;20018;-77
2022/05/28 12:44:30;;;;;;;0.60;0.30;;;;;;;;;;5016361;28;20451;-77
2022/05/28 12:46:59;;;;;;;1.15;0.55;;;;;;;;;;4998494;28;20033;-78
2022/05/28 12:49:24;;;;;;;2.60;0.57;;;;;;;;;;4999646;28;20471;-77
2022/05/28 12:51:55;;;;;;;0.08;0.08;;;;;;;;;;5016283;28;20045;-77
2022/05/28 12:54:28;;;;;;;0.43;0.43;;;;;;;;;;5016371;28;20022;-77
2022/05/28 12:57:04;;;;;;;0.00;0.00;;;;;;;;;;5014762;28;20022;-77
2022/05/28 12:59:35;;;;;;;0.10;0.10;;;;;;;;;;5016236;28;20080;-77
2022/05/28 13:02:16;;;;;;;0.38;0.32;;;;;;;;;;5016279;28;20038;-78
2022/05/28 13:04:50;;;;;;;0.45;0.15;;;;;;;;;;5013094;28;20051;-77
2022/05/28 13:07:43;;;;;;;0.25;0.25;;;;;;;;;;5014599;28;20026;-77
2022/05/28 13:10:19;;;;;;;;;;;;;;;;;;5015780;28;20034;-77
2022/05/28 13:12:53;;;;;;;1.77;0.52;;;;;;;;;;5013273;28;19924;-77
2022/05/28 13:15:28;;;;;;;1.08;0.77;;;;;;;;;;5015775;28;20491;-77
2022/05/28 13:18:02;;;;;;;0.10;0.10;;;;;;;;;;5015295;28;20402;-77
2022/05/28 13:20:57;;;;;;;2.30;0.20;;;;;;;;;;5015967;28;20032;-77
2022/05/28 13:23:29;;;;;;;0.30;0.30;;;;;;;;;;5015994;28;20037;-77
2022/05/28 13:25:54;;;;;;;;;;;;;;;;;;5015727;28;20021;-77
2022/05/28 13:28:32;;;;;;;0.10;0.10;;;;;;;;;;5015946;28;19921;-76
2022/05/28 13:31:08;;;;;;;0.08;0.08;;;;;;;;;;5015315;28;20609;-77
2022/05/28 13:33:40;;;;;;;2.78;0.43;;;;;;;;;;5030319;28;20018;-78
2022/05/28 13:36:06;;;;;;;;;;;;;;;;;;5015997;28;20018;-77
2022/05/28 13:38:39;;;;;;;0.08;0.05;;;;;;;;;;5015646;28;19936;-77
2022/05/28 13:41:14;;;;;;;0.28;0.22;;;;;;;;;;5015520;28;20398;-77
2022/05/28 13:43:42;;;;;;;1.35;0.30;;;;;;;;;;5013817;28;20017;-77
2022/05/28 13:46:17;;;;;;;0.40;0.40;;;;;;;;;;5015111;28;20026;-77
2022/05/28 13:48:49;;;;;;;3.97;0.52;;;;;;;;;;5013825;28;20463;-78
2022/05/28 13:51:21;;;;;;;0.88;0.38;;;;;;;;;;5011219;28;20430;-77
2022/05/28 13:53:50;;;;;;;1.27;1.08;;;;;;;;;;5015407;28;20098;-78
2022/05/28 13:56:23;;;;;;;0.38;0.13;;;;;;;;;;5015569;28;20014;-78
2022/05/28 13:58:48;;;;;;;0.00;0.00;;;;;;;;;;5015853;28;20057;-77
2022/05/28 14:01:26;;;;;;;0.63;0.20;;;;;;;;;;5015553;28;20057;-78
2022/05/28 14:03:51;;;;;;;0.95;0.65;;;;;;;;;;5014108;28;20100;-78
2022/05/28 14:06:17;;;;;;;4.72;0.45;;;;;;;;;;5015382;28;20060;-78
2022/05/28 14:08:45;;;;;;;0.75;0.63;;;;;;;;;;5014111;28;20103;-79
2022/05/28 14:11:32;;;;;;;1.02;0.75;;;;;;;;;;5015516;28;20624;-77
2022/05/28 14:14:18;;;;;;;0.17;0.17;;;;;;;;;;5015079;28;20091;-77
2022/05/28 14:16:48;;;;;;;0.15;0.15;;;;;;;;;;5012224;28;20052;-77
2022/05/28 14:19:37;;;;;;;0.30;0.30;;;;;;;;;;5014695;28;20018;-77
2022/05/28 14:22:07;;;;;;;0.30;0.13;;;;;;;;;;5007844;28;20033;-77
2022/05/28 14:24:38;;;;;;;1.73;0.30;;;;;;;;;;5013644;28;20372;-80
2022/05/28 14:27:07;;;;;;;0.70;0.60;;;;;;;;;;5013699;28;20044;-78
2022/05/28 14:29:37;;;;;;;0.20;0.20;;;;;;;;;;5013816;28;20026;-78
2022/05/28 14:32:11;;;;;;;0.20;0.20;;;;;;;;;;5014424;28;20030;-78
2022/05/28 14:34:38;;;;;;;0.52;0.52;;;;;;;;;;5010872;28;20065;-79
2022/05/28 14:37:07;;;;;;;3.38;1.33;;;;;;;;;;5014128;28;20034;-78
2022/05/28 14:39:43;;;;;;;0.38;0.38;;;;;;;;;;5013921;28;20347;-78
2022/05/28 14:42:11;;;;;;;0.35;0.15;;;;;;;;;;5010824;28;20030;-79
2022/05/28 14:44:38;;;;;;;0.77;0.32;;;;;;;;;;5011724;28;20029;-79
2022/05/28 14:47:22;;;;;;;1.45;0.77;;;;;;;;;;5010678;28;20021;-78
2022/05/28 14:49:55;;;;;;;0.35;0.28;;;;;;;;;;4995373;28;20014;-78
2022/05/28 14:52:22;;;;;;;0.47;0.20;;;;;;;;;;5011337;28;20032;-78
2022/05/28 14:54:55;;;;;;;6.82;0.40;;;;;;;;;;5013782;28;20022;-78
2022/05/28 14:57:22;;;;;;;0.17;0.17;;;;;;;;;;5013544;28;20447;-78
2022/05/28 14:59:48;;;;;;;2.10;0.75;;;;;;;;;;5013726;28;20040;-78
2022/05/28 15:02:31;;;;;;;0.47;0.20;;;;;;;;;;5013060;28;20025;-79
2022/05/28 15:05:23;;;;;;;0.30;0.30;;;;;;;;;;5007322;28;20339;-79
2022/05/28 15:08:03;;;;;;;0.00;0.00;;;;;;;;;;5013800;28;20459;-78
2022/05/28 15:10:30;;;;;;;1.45;0.52;;;;;;;;;;5012897;28;20435;-78
2022/05/28 15:13:08;;;;;;;0.00;0.00;;;;;;;;;;5009108;28;20022;-79
2022/05/28 15:15:38;;;;;;;1.10;0.60;;;;;;;;;;5013971;28;20100;-77
2022/05/28 15:18:04;;;;;;;0.47;0.30;;;;;;;;;;5013266;28;20034;-77
2022/05/28 15:20:31;;;;;;;0.10;0.10;;;;;;;;;;5013690;28;20497;-77
2022/05/28 15:22:56;;;;;;;0.22;0.20;;;;;;;;;;5013999;28;20116;-78
2022/05/28 15:25:22;;;;;;;0.10;0.10;;;;;;;;;;5010675;28;20164;-77